OOCL Oakland — 3EKJ6 — position and weather

sailwx.info

Track history (hours):
 
Tides and Currents Weather Stations Pressure Air Temp Water Temp Dewpoint Dewpoint Depression Visibility Wind Speed Wind Dir Waves Ship Positions

OOCL Oakland

Last reported at 2017-Feb-13 10:33 UTC. Time now 2017-Feb-21 17:15 UTC.
Position S 26°44' E 153°12'.
Warning: this ship's position is 8 days out of date.

Length 280 m; draft 11.6 m.

Type: Ship. MMSI: 372703235.

Date/timePositionNaut miles runAvg speedWind from/ knotsBaromVisibWave heightAir tempDewpointWater temp
2017-Feb-13 10:33S 26°44' E 153°12'1313.4
2017-Feb-13 09:33S 26°57' E 153°13'1616.0
2017-Feb-13 08:33S 27°12' E 153°20'1313.0
2017-Feb-13 07:33S 27°22' E 153°11'0 0.1
2017-Feb-13 06:33S 27°22' E 153°11'0 0.0
2017-Feb-13 05:33S 27°22' E 153°11'0 0.0
2017-Feb-13 04:33S 27°22' E 153°11'0 0.0
2017-Feb-13 03:33S 27°22' E 153°11'0 0.0
2017-Feb-13 02:33S 27°22' E 153°11'0 0.0
2017-Feb-13 01:30S 27°22' E 153°11'0 0.1
2017-Feb-13 00:33S 27°22' E 153°11'0 0.1
2017-Feb-12 23:33S 27°22' E 153°11'0 0.0
2017-Feb-12 22:33S 27°22' E 153°11'0 0.0
2017-Feb-12 21:33S 27°22' E 153°11'0 0.0
2017-Feb-12 20:33S 27°22' E 153°11'0 0.0
2017-Feb-12 19:33S 27°22' E 153°11'0 0.0
2017-Feb-12 18:33S 27°22' E 153°11'0 0.1
2017-Feb-12 17:33S 27°22' E 153°11'0 0.1
2017-Feb-12 16:33S 27°22' E 153°11'0 0.0
2017-Feb-12 15:33S 27°22' E 153°11'0 0.0
2017-Feb-12 14:33S 27°22' E 153°11'0 0.0
2017-Feb-12 13:33S 27°22' E 153°11'1 0.8
2017-Feb-12 12:33S 27°21' E 153°11'1514.5
2017-Feb-12 11:33S 27°09' E 153°21'1615.7
2017-Feb-12 10:33S 26°56' E 153°12'1212.4
2017-Feb-12 09:34S 26°44' E 153°11'6 5.6
2017-Feb-12 08:33S 26°39' E 153°15'1212.2
2017-Feb-12 07:33S 26°49' E 153°23'1615.9
2017-Feb-12 06:33S 26°60' E 153°36'1716.6
2017-Feb-12 05:33S 27°16' E 153°40'1616.3
2017-Feb-12 04:33S 27°32' E 153°43'1615.6
2017-Feb-12 03:33S 27°48' E 153°46'1615.7
2017-Feb-12 02:33S 28°03' E 153°48'1616.0
2017-Feb-12 01:33S 28°19' E 153°49'1616.1
2017-Feb-12 00:33S 28°35' E 153°47'1716.7
2017-Feb-11 23:33S 28°52' E 153°45'3617.3
2017-Feb-11 21:29S 29°27' E 153°40'13717.1
2017-Feb-11 13:28S 31°40' E 153°01'1516.6
2017-Feb-11 12:33S 31°55' E 152°56'1616.4
2017-Feb-11 11:33S 32°10' E 152°50'1616.1
2017-Feb-11 10:33S 32°26' E 152°44'1615.7
2017-Feb-11 09:33S 32°40' E 152°37'1515.1
2017-Feb-11 08:33S 32°54' E 152°29'1615.8
2017-Feb-11 07:32S 33°09' E 152°22'1616.6
2017-Feb-11 06:33S 33°24' E 152°15'1716.5
2017-Feb-11 05:33S 33°39' E 152°08'1716.6
2017-Feb-11 04:33S 33°54' E 151°60'1716.8
2017-Feb-11 03:33S 34°10' E 151°53'1716.8
2017-Feb-11 02:33S 34°26' E 151°46'1716.9
2017-Feb-11 01:33S 34°42' E 151°39'1616.5
2017-Feb-11 00:33S 34°57' E 151°31'1616.0
2017-Feb-10 23:33S 35°12' E 151°24'1715.9
2017-Feb-10 22:31S 35°27' E 151°17'1515.8
2017-Feb-10 21:33S 35°42' E 151°10'3716.5
2017-Feb-10 19:17S 36°16' E 150°52'  
2017-Feb-06 05:33S 34°10' E 151°14'12 8.7
2017-Feb-06 04:12S 33°58' E 151°12'  
2017-Feb-03 19:24S 33°12' E 152°05'1517.9
2017-Feb-03 18:33S 32°59' E 152°14'1818.2
2017-Feb-03 17:33S 32°45' E 152°28'1919.0
2017-Feb-03 16:33S 32°29' E 152°41'  
Track history (hours):
 
Tides and Currents Weather Stations Pressure Air Temp Water Temp Dewpoint Dewpoint Depression Visibility Wind Speed Wind Dir Waves Ship Positions

OOCL Oakland

Last reported at 2017-Feb-13 10:33 UTC. Time now 2017-Feb-21 17:15 UTC.
Position S 26°44' E 153°12'.
Warning: this ship's position is 8 days out of date.

Length 280 m; draft 11.6 m.

Type: Ship. MMSI: 372703235.

Date/timePositionNaut miles runAvg speedWind from/ knotsBaromVisibWave heightAir tempDewpointWater temp
2017-Feb-13 10:33S 26°44' E 153°12'1313.4
2017-Feb-13 09:33S 26°57' E 153°13'1616.0
2017-Feb-13 08:33S 27°12' E 153°20'1313.0
2017-Feb-13 07:33S 27°22' E 153°11'0 0.1
2017-Feb-13 06:33S 27°22' E 153°11'0 0.0
2017-Feb-13 05:33S 27°22' E 153°11'0 0.0
2017-Feb-13 04:33S 27°22' E 153°11'0 0.0
2017-Feb-13 03:33S 27°22' E 153°11'0 0.0
2017-Feb-13 02:33S 27°22' E 153°11'0 0.0
2017-Feb-13 01:30S 27°22' E 153°11'0 0.1
2017-Feb-13 00:33S 27°22' E 153°11'0 0.1
2017-Feb-12 23:33S 27°22' E 153°11'0 0.0
2017-Feb-12 22:33S 27°22' E 153°11'0 0.0
2017-Feb-12 21:33S 27°22' E 153°11'0 0.0
2017-Feb-12 20:33S 27°22' E 153°11'0 0.0
2017-Feb-12 19:33S 27°22' E 153°11'0 0.0
2017-Feb-12 18:33S 27°22' E 153°11'0 0.1
2017-Feb-12 17:33S 27°22' E 153°11'0 0.1
2017-Feb-12 16:33S 27°22' E 153°11'0 0.0
2017-Feb-12 15:33S 27°22' E 153°11'0 0.0
2017-Feb-12 14:33S 27°22' E 153°11'0 0.0
2017-Feb-12 13:33S 27°22' E 153°11'1 0.8
2017-Feb-12 12:33S 27°21' E 153°11'1514.5
2017-Feb-12 11:33S 27°09' E 153°21'1615.7
2017-Feb-12 10:33S 26°56' E 153°12'1212.4
2017-Feb-12 09:34S 26°44' E 153°11'6 5.6
2017-Feb-12 08:33S 26°39' E 153°15'1212.2
2017-Feb-12 07:33S 26°49' E 153°23'1615.9
2017-Feb-12 06:33S 26°60' E 153°36'1716.6
2017-Feb-12 05:33S 27°16' E 153°40'1616.3
2017-Feb-12 04:33S 27°32' E 153°43'1615.6
2017-Feb-12 03:33S 27°48' E 153°46'1615.7
2017-Feb-12 02:33S 28°03' E 153°48'1616.0
2017-Feb-12 01:33S 28°19' E 153°49'1616.1
2017-Feb-12 00:33S 28°35' E 153°47'1716.7
2017-Feb-11 23:33S 28°52' E 153°45'3617.3
2017-Feb-11 21:29S 29°27' E 153°40'13717.1
2017-Feb-11 13:28S 31°40' E 153°01'1516.6
2017-Feb-11 12:33S 31°55' E 152°56'1616.4
2017-Feb-11 11:33S 32°10' E 152°50'1616.1
2017-Feb-11 10:33S 32°26' E 152°44'1615.7
2017-Feb-11 09:33S 32°40' E 152°37'1515.1
2017-Feb-11 08:33S 32°54' E 152°29'1615.8
2017-Feb-11 07:32S 33°09' E 152°22'1616.6
2017-Feb-11 06:33S 33°24' E 152°15'1716.5
2017-Feb-11 05:33S 33°39' E 152°08'1716.6
2017-Feb-11 04:33S 33°54' E 151°60'1716.8
2017-Feb-11 03:33S 34°10' E 151°53'1716.8
2017-Feb-11 02:33S 34°26' E 151°46'1716.9
2017-Feb-11 01:33S 34°42' E 151°39'1616.5
2017-Feb-11 00:33S 34°57' E 151°31'1616.0
2017-Feb-10 23:33S 35°12' E 151°24'1715.9
2017-Feb-10 22:31S 35°27' E 151°17'1515.8
2017-Feb-10 21:33S 35°42' E 151°10'3716.5
2017-Feb-10 19:17S 36°16' E 150°52'  
2017-Feb-06 05:33S 34°10' E 151°14'12 8.7
2017-Feb-06 04:12S 33°58' E 151°12'  
2017-Feb-03 19:24S 33°12' E 152°05'1517.9
2017-Feb-03 18:33S 32°59' E 152°14'1818.2
2017-Feb-03 17:33S 32°45' E 152°28'1919.0
2017-Feb-03 16:33S 32°29' E 152°41'  

Dump ship's entire track history